Time;durP1;ratioP1;P1;durP2;ratioP2;P2;SDS_P1;SDS_P2;PMS_P1;PMS_P2;Temp;Humidity;BMP_temperature;BMP_pressure;BME280_temperature;BME280_humidity;BME280_pressure;Samples;Min_cycle;Max_cycle;Signal;HPM_P1;HPM_P2
2022/07/20 00:04:35;;;;;;;5.93;2.85;;;;;;;;;;10449493;28;20237;-73
2022/07/20 00:14:56;;;;;;;2.92;2.60;;;;;;;;;;10441795;28;20202;-73
2022/07/20 00:19:57;;;;;;;2.53;2.33;;;;;;;;;;10440541;28;20213;-72
2022/07/20 00:24:58;;;;;;;2.28;2.17;;;;;;;;;;10438628;28;20195;-73
2022/07/20 00:29:59;;;;;;;5.53;2.38;;;;;;;;;;10443905;28;20230;-73
2022/07/20 00:35:00;;;;;;;3.28;2.47;;;;;;;;;;10440471;28;20230;-73
2022/07/20 00:40:02;;;;;;;2.83;2.47;;;;;;;;;;10448842;28;20174;-73
2022/07/20 00:45:03;;;;;;;3.60;2.50;;;;;;;;;;10443925;28;20682;-73
2022/07/20 00:50:05;;;;;;;3.45;3.10;;;;;;;;;;10442328;28;20230;-73
2022/07/20 00:55:07;;;;;;;3.97;2.70;;;;;;;;;;10450091;28;20211;-73
2022/07/20 01:00:08;;;;;;;3.55;2.38;;;;;;;;;;10441842;28;20300;-74
2022/07/20 01:05:15;;;;;;;2.60;2.50;;;;;;;;;;10439630;28;20271;-73
2022/07/20 01:10:19;;;;;;;2.88;2.67;;;;;;;;;;10447200;28;20178;-73
2022/07/20 01:15:20;;;;;;;3.85;2.80;;;;;;;;;;10451936;28;20206;-73
2022/07/20 01:20:24;;;;;;;4.78;2.72;;;;;;;;;;10446452;28;20334;-74
2022/07/20 01:25:25;;;;;;;3.45;2.85;;;;;;;;;;10449993;28;20241;-73
2022/07/20 01:30:26;;;;;;;2.80;2.58;;;;;;;;;;10456614;28;20757;-73
2022/07/20 01:35:27;;;;;;;2.60;2.50;;;;;;;;;;10449074;28;20301;-73
2022/07/20 01:40:28;;;;;;;4.72;2.70;;;;;;;;;;10447300;28;20187;-74
2022/07/20 01:45:30;;;;;;;5.97;2.72;;;;;;;;;;10454248;28;20186;-74
2022/07/20 01:50:31;;;;;;;2.92;2.72;;;;;;;;;;10448420;28;20202;-75
2022/07/20 01:55:32;;;;;;;2.50;2.40;;;;;;;;;;10449711;28;20741;-73
2022/07/20 02:00:33;;;;;;;3.05;2.83;;;;;;;;;;10449888;28;20236;-73
2022/07/20 02:05:34;;;;;;;3.00;2.90;;;;;;;;;;10450124;28;20205;-74
2022/07/20 02:10:35;;;;;;;2.92;2.75;;;;;;;;;;10446424;28;20194;-74
2022/07/20 02:20:56;;;;;;;3.53;3.10;;;;;;;;;;10446529;28;20272;-74
2022/07/20 02:25:57;;;;;;;3.10;2.80;;;;;;;;;;10446616;28;20189;-74
2022/07/20 02:30:59;;;;;;;3.40;2.63;;;;;;;;;;10448005;28;20249;-74
2022/07/20 02:36:00;;;;;;;2.78;2.58;;;;;;;;;;10436488;28;20237;-74
2022/07/20 02:41:01;;;;;;;3.00;2.80;;;;;;;;;;10459152;28;20182;-73
2022/07/20 02:46:02;;;;;;;3.08;2.92;;;;;;;;;;10445521;28;20201;-73
2022/07/20 02:51:03;;;;;;;3.45;3.25;;;;;;;;;;10451272;28;20206;-73
2022/07/20 02:56:04;;;;;;;6.57;3.20;;;;;;;;;;10446782;28;20226;-73
2022/07/20 03:01:05;;;;;;;2.67;2.58;;;;;;;;;;10442206;28;20305;-73
2022/07/20 03:06:06;;;;;;;3.60;3.35;;;;;;;;;;10445353;28;20321;-73
2022/07/20 03:11:07;;;;;;;4.65;3.05;;;;;;;;;;10454580;28;20243;-74
2022/07/20 03:16:08;;;;;;;3.85;3.20;;;;;;;;;;10449882;28;20205;-74
2022/07/20 03:21:10;;;;;;;3.30;2.92;;;;;;;;;;10454142;28;20466;-74
2022/07/20 03:26:11;;;;;;;9.48;4.03;;;;;;;;;;10449802;28;20194;-73
2022/07/20 03:31:12;;;;;;;3.92;3.63;;;;;;;;;;10441505;28;20269;-73
2022/07/20 03:36:13;;;;;;;4.97;3.50;;;;;;;;;;10444896;28;20706;-73
2022/07/20 03:41:14;;;;;;;5.78;3.78;;;;;;;;;;10447599;28;20217;-73
2022/07/20 03:46:17;;;;;;;3.95;3.33;;;;;;;;;;10431801;28;20566;-74
2022/07/20 03:51:18;;;;;;;6.63;4.50;;;;;;;;;;10444774;28;20805;-74
2022/07/20 03:56:19;;;;;;;7.35;6.13;;;;;;;;;;10447958;28;20237;-73
2022/07/20 04:01:20;;;;;;;6.05;5.18;;;;;;;;;;10441135;28;20589;-73
2022/07/20 04:06:21;;;;;;;4.85;3.72;;;;;;;;;;10440772;28;20186;-74
2022/07/20 04:11:23;;;;;;;7.80;3.83;;;;;;;;;;10440550;28;20269;-74
2022/07/20 04:16:24;;;;;;;8.30;4.03;;;;;;;;;;10453415;28;20368;-73
2022/07/20 04:21:25;;;;;;;5.40;4.15;;;;;;;;;;10442583;28;20282;-73
2022/07/20 04:26:26;;;;;;;3.92;3.65;;;;;;;;;;10442848;28;20602;-74
2022/07/20 04:31:27;;;;;;;5.10;4.20;;;;;;;;;;10436797;28;20547;-74
2022/07/20 04:36:28;;;;;;;5.18;3.92;;;;;;;;;;10441274;28;20931;-73
2022/07/20 04:41:29;;;;;;;6.18;3.80;;;;;;;;;;10451894;28;20191;-72
2022/07/20 04:46:30;;;;;;;6.70;4.10;;;;;;;;;;10450694;28;20187;-74
2022/07/20 04:51:31;;;;;;;4.45;4.05;;;;;;;;;;10447935;28;20190;-74
2022/07/20 04:56:32;;;;;;;5.50;4.30;;;;;;;;;;10448972;28;20206;-73
2022/07/20 05:01:33;;;;;;;5.85;3.90;;;;;;;;;;10448531;28;20241;-74
2022/07/20 05:06:34;;;;;;;4.88;4.28;;;;;;;;;;10446774;28;20320;-74
2022/07/20 05:11:35;;;;;;;5.70;4.10;;;;;;;;;;10447614;28;20183;-73
2022/07/20 05:16:36;;;;;;;4.50;3.70;;;;;;;;;;10448647;28;20210;-74
2022/07/20 05:21:38;;;;;;;6.70;3.67;;;;;;;;;;10428801;28;20208;-73
2022/07/20 05:26:39;;;;;;;8.23;3.97;;;;;;;;;;10446526;28;20213;-74
2022/07/20 05:31:42;;;;;;;4.05;3.72;;;;;;;;;;10444113;28;20227;-74
2022/07/20 05:36:43;;;;;;;4.32;3.90;;;;;;;;;;10446025;28;20217;-74
2022/07/20 05:41:45;;;;;;;8.27;3.67;;;;;;;;;;10446915;28;20190;-73
2022/07/20 05:46:46;;;;;;;5.55;3.05;;;;;;;;;;10463322;28;20186;-72
2022/07/20 05:51:47;;;;;;;6.57;3.72;;;;;;;;;;10446882;28;20207;-73
2022/07/20 05:56:48;;;;;;;8.93;3.40;;;;;;;;;;10454274;28;20218;-74
2022/07/20 06:01:49;;;;;;;7.63;3.55;;;;;;;;;;10444949;28;20237;-74
2022/07/20 06:06:50;;;;;;;5.65;3.75;;;;;;;;;;10444698;28;20185;-74
2022/07/20 06:11:51;;;;;;;6.78;3.90;;;;;;;;;;10444744;28;20179;-74
2022/07/20 06:16:52;;;;;;;7.97;3.83;;;;;;;;;;10457777;28;20237;-73
2022/07/20 06:21:53;;;;;;;8.20;4.00;;;;;;;;;;10444512;28;20206;-73
2022/07/20 06:26:54;;;;;;;8.27;3.58;;;;;;;;;;10447148;28;20178;-73
2022/07/20 06:31:55;;;;;;;8.10;3.85;;;;;;;;;;10434439;28;20223;-74
2022/07/20 06:36:56;;;;;;;7.50;3.25;;;;;;;;;;10446179;28;20799;-74
2022/07/20 06:41:57;;;;;;;8.65;4.10;;;;;;;;;;10444249;28;20201;-74
2022/07/20 06:47:00;;;;;;;7.40;3.85;;;;;;;;;;10433131;28;20179;-74
2022/07/20 06:52:01;;;;;;;7.90;3.97;;;;;;;;;;10445110;28;20244;-73
2022/07/20 06:57:02;;;;;;;4.00;3.58;;;;;;;;;;10454090;28;20262;-74
2022/07/20 07:02:04;;;;;;;6.60;3.50;;;;;;;;;;10441430;28;20222;-74
2022/07/20 07:07:05;;;;;;;5.85;3.45;;;;;;;;;;10442373;28;20565;-73
2022/07/20 07:12:06;;;;;;;6.53;3.60;;;;;;;;;;10459130;28;20546;-74
2022/07/20 07:17:07;;;;;;;5.82;3.28;;;;;;;;;;10441489;28;20270;-73
2022/07/20 07:22:09;;;;;;;5.60;3.17;;;;;;;;;;10442646;28;20191;-74
2022/07/20 07:27:10;;;;;;;3.60;3.30;;;;;;;;;;10446069;28;20431;-74
2022/07/20 07:32:11;;;;;;;8.82;3.38;;;;;;;;;;10443863;28;20218;-74
2022/07/20 07:37:12;;;;;;;8.10;3.30;;;;;;;;;;10445985;28;20563;-73
2022/07/20 07:42:14;;;;;;;8.10;3.22;;;;;;;;;;10442877;28;20192;-74
2022/07/20 07:47:15;;;;;;;8.45;3.10;;;;;;;;;;10444213;28;20205;-74
2022/07/20 07:52:17;;;;;;;6.95;3.35;;;;;;;;;;10441238;28;20639;-74
2022/07/20 07:57:18;;;;;;;6.03;3.05;;;;;;;;;;10451743;28;20227;-75
2022/07/20 08:02:19;;;;;;;5.97;3.33;;;;;;;;;;10441108;28;20547;-75
2022/07/20 08:07:20;;;;;;;5.38;3.20;;;;;;;;;;10441266;28;20698;-74
2022/07/20 08:12:21;;;;;;;8.48;3.25;;;;;;;;;;10440831;28;20724;-74
2022/07/20 08:17:22;;;;;;;3.95;2.67;;;;;;;;;;10443507;28;20198;-75
2022/07/20 08:22:23;;;;;;;7.15;3.28;;;;;;;;;;10451910;28;20249;-74
2022/07/20 08:27:24;;;;;;;5.07;3.40;;;;;;;;;;10458467;28;20218;-74
2022/07/20 08:32:26;;;;;;;6.43;3.72;;;;;;;;;;10456355;28;20222;-75
2022/07/20 08:37:27;;;;;;;12.32;3.08;;;;;;;;;;10456426;28;20578;-75
2022/07/20 08:42:28;;;;;;;4.10;3.10;;;;;;;;;;10451687;28;20197;-75
2022/07/20 08:47:30;;;;;;;11.00;2.92;;;;;;;;;;10452530;28;20215;-74
2022/07/20 08:52:31;;;;;;;7.10;2.97;;;;;;;;;;10450809;28;20210;-75
2022/07/20 08:57:36;;;;;;;8.77;3.33;;;;;;;;;;10450628;28;20577;-75
2022/07/20 09:02:57;;;;;;;5.90;2.85;;;;;;;;;;10449340;28;20314;-74
2022/07/20 09:07:58;;;;;;;4.32;3.00;;;;;;;;;;10452697;28;20189;-75
2022/07/20 09:13:00;;;;;;;6.25;3.35;;;;;;;;;;10458479;28;20210;-75
2022/07/20 09:18:05;;;;;;;3.70;2.85;;;;;;;;;;10451107;28;20559;-75
2022/07/20 09:23:08;;;;;;;5.72;2.78;;;;;;;;;;10449150;28;20194;-75
2022/07/20 09:28:09;;;;;;;7.30;2.78;;;;;;;;;;10448625;28;20194;-76
2022/07/20 09:33:10;;;;;;;3.25;2.80;;;;;;;;;;10446872;28;20231;-74
2022/07/20 09:38:11;;;;;;;6.00;2.35;;;;;;;;;;10448999;28;20669;-76
2022/07/20 09:43:41;;;;;;;4.22;2.10;;;;;;;;;;10451774;28;20185;-75
2022/07/20 09:48:49;;;;;;;7.93;2.80;;;;;;;;;;10446599;28;20206;-75
2022/07/20 09:53:52;;;;;;;6.57;2.20;;;;;;;;;;10444209;28;20206;-75
2022/07/20 09:58:54;;;;;;;6.82;2.63;;;;;;;;;;10462567;28;20214;-75
2022/07/20 10:03:56;;;;;;;8.85;2.38;;;;;;;;;;10445237;28;20211;-75
2022/07/20 10:08:57;;;;;;;4.82;2.40;;;;;;;;;;10428844;28;20685;-75
2022/07/20 10:14:03;;;;;;;3.70;2.70;;;;;;;;;;10444838;28;20910;-75
2022/07/20 10:19:04;;;;;;;4.65;2.75;;;;;;;;;;10447718;28;20647;-75
2022/07/20 10:24:22;;;;;;;3.05;2.38;;;;;;;;;;10444742;28;20263;-75
2022/07/20 10:29:33;;;;;;;4.15;2.22;;;;;;;;;;10444870;28;20209;-75
2022/07/20 10:34:36;;;;;;;3.80;2.25;;;;;;;;;;10444148;28;20253;-76
2022/07/20 10:39:43;;;;;;;3.95;2.50;;;;;;;;;;10445915;28;20236;-75
2022/07/20 10:44:44;;;;;;;3.55;2.33;;;;;;;;;;10454282;28;20197;-75
2022/07/20 10:49:59;;;;;;;3.65;2.50;;;;;;;;;;10434187;28;20297;-76
2022/07/20 10:55:01;;;;;;;3.08;2.05;;;;;;;;;;10444261;28;20685;-75
2022/07/20 11:00:09;;;;;;;2.72;2.40;;;;;;;;;;10443071;28;20179;-74
2022/07/20 11:05:18;;;;;;;6.10;2.28;;;;;;;;;;10441771;28;20293;-74
2022/07/20 11:10:38;;;;;;;3.63;2.00;;;;;;;;;;10445601;28;20214;-74
2022/07/20 11:15:42;;;;;;;4.15;2.63;;;;;;;;;;10441548;28;20567;-73
2022/07/20 11:20:51;;;;;;;1.88;1.67;;;;;;;;;;10445132;28;20233;-73
2022/07/20 11:25:54;;;;;;;4.45;1.88;;;;;;;;;;10453543;28;20221;-72
2022/07/20 11:30:55;;;;;;;1.90;1.80;;;;;;;;;;10467077;28;20226;-73
2022/07/20 11:35:58;;;;;;;3.42;2.05;;;;;;;;;;10439943;28;20238;-72
2022/07/20 11:41:01;;;;;;;2.08;1.98;;;;;;;;;;10443651;28;20206;-73
2022/07/20 11:46:14;;;;;;;2.78;1.80;;;;;;;;;;10443227;28;20186;-72
2022/07/20 11:51:15;;;;;;;4.35;1.80;;;;;;;;;;10438514;28;20384;-72
2022/07/20 11:56:18;;;;;;;2.05;1.85;;;;;;;;;;10441832;28;20579;-72
2022/07/20 12:01:21;;;;;;;2.88;1.83;;;;;;;;;;10440025;28;20264;-72
2022/07/20 12:06:22;;;;;;;3.40;1.92;;;;;;;;;;10451597;28;20190;-72
2022/07/20 12:11:23;;;;;;;3.42;1.92;;;;;;;;;;10447400;28;20193;-72
2022/07/20 12:16:25;;;;;;;7.10;2.28;;;;;;;;;;10440388;28;20339;-72
2022/07/20 12:21:27;;;;;;;2.90;2.30;;;;;;;;;;10440824;28;20214;-73
2022/07/20 12:26:32;;;;;;;2.35;2.15;;;;;;;;;;10440988;28;20362;-72
2022/07/20 12:31:33;;;;;;;2.33;1.80;;;;;;;;;;10440511;28;20230;-72
2022/07/20 12:36:35;;;;;;;4.20;2.40;;;;;;;;;;10443356;28;20210;-72
2022/07/20 12:41:37;;;;;;;3.90;2.05;;;;;;;;;;10450475;28;20191;-72
2022/07/20 12:46:38;;;;;;;3.75;2.40;;;;;;;;;;10443417;28;20190;-72
2022/07/20 12:51:39;;;;;;;4.57;1.90;;;;;;;;;;10450149;28;20207;-72
2022/07/20 12:56:41;;;;;;;3.47;2.47;;;;;;;;;;10439392;28;20305;-72
2022/07/20 13:01:48;;;;;;;3.40;2.05;;;;;;;;;;10439742;28;20218;-71
2022/07/20 13:06:50;;;;;;;2.20;1.77;;;;;;;;;;10445450;28;20193;-72
2022/07/20 13:11:52;;;;;;;3.90;1.88;;;;;;;;;;10444911;28;20194;-72
2022/07/20 13:16:54;;;;;;;3.67;1.83;;;;;;;;;;10449677;28;20210;-72
2022/07/20 13:21:55;;;;;;;1.65;1.45;;;;;;;;;;10448346;28;20175;-73
2022/07/20 13:26:56;;;;;;;1.90;1.60;;;;;;;;;;10449071;28;20275;-73
2022/07/20 13:31:57;;;;;;;1.77;1.67;;;;;;;;;;10448702;28;20229;-71
2022/07/20 13:36:58;;;;;;;2.83;1.45;;;;;;;;;;10453660;28;20210;-72
2022/07/20 13:41:59;;;;;;;1.80;1.52;;;;;;;;;;10458957;28;20557;-72
2022/07/20 13:47:01;;;;;;;2.00;1.83;;;;;;;;;;10450968;28;20221;-72
2022/07/20 13:52:03;;;;;;;2.22;1.35;;;;;;;;;;10433887;28;20192;-72
2022/07/20 13:57:04;;;;;;;2.03;2.03;;;;;;;;;;10447969;28;20271;-71
2022/07/20 14:02:05;;;;;;;2.33;2.05;;;;;;;;;;10449397;28;20229;-72
2022/07/20 14:07:06;;;;;;;4.03;1.75;;;;;;;;;;10428670;28;20240;-73
2022/07/20 14:12:07;;;;;;;1.73;1.63;;;;;;;;;;10452293;28;20186;-72
2022/07/20 14:17:10;;;;;;;5.05;1.90;;;;;;;;;;10454318;28;20222;-72
2022/07/20 14:22:11;;;;;;;6.40;1.77;;;;;;;;;;10450901;28;20547;-72
2022/07/20 14:27:12;;;;;;;3.00;2.08;;;;;;;;;;10444273;28;20602;-71
2022/07/20 14:32:13;;;;;;;2.22;1.85;;;;;;;;;;10444626;28;20225;-72
2022/07/20 14:37:14;;;;;;;2.10;1.90;;;;;;;;;;10444906;28;20237;-72
2022/07/20 14:42:15;;;;;;;4.00;2.15;;;;;;;;;;10443275;28;20262;-72
2022/07/20 14:47:17;;;;;;;1.95;1.80;;;;;;;;;;10431887;28;20815;-72
2022/07/20 14:52:18;;;;;;;1.88;1.77;;;;;;;;;;10447782;28;20209;-72
2022/07/20 14:57:19;;;;;;;4.72;2.40;;;;;;;;;;10448334;28;20229;-72
2022/07/20 15:02:20;;;;;;;1.98;1.80;;;;;;;;;;10441210;28;20213;-73
2022/07/20 15:07:22;;;;;;;2.05;1.90;;;;;;;;;;10442915;28;20724;-73
2022/07/20 15:12:23;;;;;;;3.80;1.85;;;;;;;;;;10452937;28;20644;-73
2022/07/20 15:17:24;;;;;;;3.78;1.73;;;;;;;;;;10442004;28;20208;-72
2022/07/20 15:22:25;;;;;;;2.17;2.00;;;;;;;;;;10442832;28;20181;-73
2022/07/20 15:27:26;;;;;;;6.32;2.20;;;;;;;;;;10440256;28;20276;-72
2022/07/20 15:32:27;;;;;;;2.40;1.83;;;;;;;;;;10442931;28;20226;-73
2022/07/20 15:37:28;;;;;;;4.05;2.20;;;;;;;;;;10447074;28;20182;-73
2022/07/20 15:42:29;;;;;;;2.13;1.80;;;;;;;;;;10442222;28;20235;-72
2022/07/20 15:47:30;;;;;;;4.30;1.92;;;;;;;;;;10443481;28;20202;-72
2022/07/20 15:52:31;;;;;;;4.10;2.00;;;;;;;;;;10442640;28;20571;-72
2022/07/20 15:57:33;;;;;;;4.50;2.10;;;;;;;;;;10448326;28;20190;-72
2022/07/20 16:02:34;;;;;;;2.58;1.98;;;;;;;;;;10453134;28;20211;-72
2022/07/20 16:07:35;;;;;;;4.47;1.60;;;;;;;;;;10452580;28;20748;-73
2022/07/20 16:12:37;;;;;;;2.30;2.10;;;;;;;;;;10440298;28;20182;-72
2022/07/20 16:17:38;;;;;;;4.70;1.90;;;;;;;;;;10440003;28;20279;-73
2022/07/20 16:22:40;;;;;;;5.32;1.60;;;;;;;;;;10439577;28;20556;-72
2022/07/20 16:27:41;;;;;;;2.42;1.90;;;;;;;;;;10442743;28;20209;-72
2022/07/20 16:32:43;;;;;;;2.45;1.50;;;;;;;;;;10444711;28;20234;-72
2022/07/20 16:37:44;;;;;;;1.98;1.48;;;;;;;;;;10442393;28;20632;-72
2022/07/20 16:42:45;;;;;;;2.10;1.40;;;;;;;;;;10453465;28;20190;-72
2022/07/20 16:47:46;;;;;;;3.72;2.03;;;;;;;;;;10449035;28;20581;-72
2022/07/20 16:52:47;;;;;;;4.18;1.75;;;;;;;;;;10446644;28;20206;-73
2022/07/20 16:57:48;;;;;;;1.63;1.52;;;;;;;;;;10448463;28;20189;-73
2022/07/20 17:02:49;;;;;;;5.30;1.65;;;;;;;;;;10446580;28;20245;-73
2022/07/20 17:07:50;;;;;;;1.10;1.08;;;;;;;;;;10447650;28;20305;-72
2022/07/20 17:12:52;;;;;;;2.85;1.30;;;;;;;;;;10448521;28;20224;-73
2022/07/20 17:17:53;;;;;;;3.60;1.40;;;;;;;;;;10452883;28;20202;-73
2022/07/20 17:22:55;;;;;;;1.50;1.40;;;;;;;;;;10450507;28;20680;-73
2022/07/20 17:27:56;;;;;;;2.70;1.10;;;;;;;;;;10449299;28;20189;-72
2022/07/20 17:32:57;;;;;;;8.57;1.58;;;;;;;;;;10447304;28;20280;-73
2022/07/20 17:37:58;;;;;;;1.60;1.50;;;;;;;;;;10446594;28;20594;-73
2022/07/20 17:42:59;;;;;;;6.88;1.50;;;;;;;;;;10452072;28;20685;-72
2022/07/20 17:48:00;;;;;;;2.75;1.80;;;;;;;;;;10450697;28;20209;-73
2022/07/20 17:53:01;;;;;;;4.10;1.48;;;;;;;;;;10448875;28;20210;-73
2022/07/20 17:58:04;;;;;;;4.32;1.58;;;;;;;;;;10444830;28;20185;-73
2022/07/20 18:03:06;;;;;;;2.65;1.33;;;;;;;;;;10446151;28;20210;-73
2022/07/20 18:08:08;;;;;;;1.70;1.30;;;;;;;;;;10449704;28;20186;-73
2022/07/20 18:13:09;;;;;;;5.18;1.33;;;;;;;;;;10450479;28;20210;-73
2022/07/20 18:18:10;;;;;;;3.70;1.52;;;;;;;;;;10454134;28;20750;-73
2022/07/20 18:23:11;;;;;;;1.67;1.58;;;;;;;;;;10445407;28;20596;-73
2022/07/20 18:28:13;;;;;;;2.25;1.50;;;;;;;;;;10444664;28;20214;-73
2022/07/20 18:33:17;;;;;;;4.00;1.63;;;;;;;;;;10447174;28;20253;-73
2022/07/20 18:38:18;;;;;;;4.22;1.73;;;;;;;;;;10447428;28;20274;-73
2022/07/20 18:43:19;;;;;;;7.00;1.48;;;;;;;;;;10442276;28;20189;-74
2022/07/20 18:48:21;;;;;;;2.75;2.65;;;;;;;;;;10444337;28;20248;-73
2022/07/20 18:53:22;;;;;;;6.47;2.00;;;;;;;;;;10455679;28;20267;-73
2022/07/20 18:58:24;;;;;;;1.63;1.50;;;;;;;;;;10444018;28;20178;-73
2022/07/20 19:03:25;;;;;;;4.38;1.77;;;;;;;;;;10441512;28;20253;-73
2022/07/20 19:08:26;;;;;;;1.83;1.58;;;;;;;;;;10436088;28;20197;-73
2022/07/20 19:13:27;;;;;;;3.15;2.30;;;;;;;;;;10439945;28;20207;-73
2022/07/20 19:18:29;;;;;;;4.25;1.98;;;;;;;;;;10443297;28;20225;-74
2022/07/20 19:23:30;;;;;;;4.50;1.70;;;;;;;;;;10446476;28;20222;-73
2022/07/20 19:28:33;;;;;;;1.70;1.50;;;;;;;;;;10441067;28;20187;-73
2022/07/20 19:33:34;;;;;;;2.42;1.73;;;;;;;;;;10441607;28;20257;-73
2022/07/20 19:38:35;;;;;;;4.82;1.85;;;;;;;;;;10442132;28;20201;-73
2022/07/20 19:43:36;;;;;;;4.10;1.65;;;;;;;;;;10443296;28;20191;-73
2022/07/20 19:48:37;;;;;;;2.78;1.52;;;;;;;;;;10444362;28;20211;-73
2022/07/20 19:53:39;;;;;;;7.20;1.90;;;;;;;;;;10447276;28;20241;-73
2022/07/20 19:58:40;;;;;;;8.30;1.77;;;;;;;;;;10442221;28;20261;-73
2022/07/20 20:03:41;;;;;;;3.88;1.95;;;;;;;;;;10444208;28;20681;-73
2022/07/20 20:08:42;;;;;;;3.38;2.13;;;;;;;;;;10443039;28;20232;-73
2022/07/20 20:13:44;;;;;;;6.63;2.47;;;;;;;;;;10444379;28;20203;-73
2022/07/20 20:18:45;;;;;;;5.53;2.45;;;;;;;;;;10457619;28;20285;-73
2022/07/20 20:23:47;;;;;;;5.72;2.00;;;;;;;;;;10453511;28;20187;-73
2022/07/20 20:28:48;;;;;;;8.57;1.98;;;;;;;;;;10457383;28;20187;-73
2022/07/20 20:33:49;;;;;;;4.78;1.95;;;;;;;;;;10458610;28;20233;-73
2022/07/20 20:38:50;;;;;;;7.95;2.10;;;;;;;;;;10450227;28;20171;-73
2022/07/20 20:43:51;;;;;;;3.78;2.10;;;;;;;;;;10449095;28;20190;-73
2022/07/20 20:48:52;;;;;;;2.08;1.60;;;;;;;;;;10447561;28;20207;-73
2022/07/20 20:53:53;;;;;;;7.40;2.30;;;;;;;;;;10446236;28;20297;-73
2022/07/20 20:58:54;;;;;;;5.65;2.28;;;;;;;;;;10446496;28;20191;-73
2022/07/20 21:03:56;;;;;;;10.32;2.30;;;;;;;;;;10449793;28;20225;-73
2022/07/20 21:08:57;;;;;;;5.25;1.95;;;;;;;;;;10448085;28;20191;-73
2022/07/20 21:13:58;;;;;;;3.08;2.20;;;;;;;;;;10447112;28;20222;-73
2022/07/20 21:18:59;;;;;;;4.93;2.97;;;;;;;;;;10458382;28;20194;-73
2022/07/20 21:24:00;;;;;;;5.65;2.35;;;;;;;;;;10449269;28;20225;-73
2022/07/20 21:29:01;;;;;;;3.45;2.30;;;;;;;;;;10449108;28;20886;-73
2022/07/20 21:34:02;;;;;;;3.17;2.40;;;;;;;;;;10448165;28;20334;-73
2022/07/20 21:39:04;;;;;;;3.38;2.35;;;;;;;;;;10451262;28;20762;-73
2022/07/20 21:44:05;;;;;;;2.63;2.10;;;;;;;;;;10449621;28;20327;-73
2022/07/20 21:49:06;;;;;;;15.40;2.10;;;;;;;;;;10446352;28;20703;-73
2022/07/20 21:54:07;;;;;;;9.07;2.45;;;;;;;;;;10446901;28;20206;-73
2022/07/20 21:59:08;;;;;;;2.17;1.83;;;;;;;;;;10448470;28;20167;-73
2022/07/20 22:04:09;;;;;;;4.25;2.08;;;;;;;;;;10435495;28;20222;-73
2022/07/20 22:09:10;;;;;;;3.70;2.05;;;;;;;;;;10459194;28;20181;-73
2022/07/20 22:14:11;;;;;;;5.35;1.98;;;;;;;;;;10457741;28;20230;-72
2022/07/20 22:19:12;;;;;;;3.58;2.03;;;;;;;;;;10446717;28;20203;-73
2022/07/20 22:24:13;;;;;;;6.65;1.90;;;;;;;;;;10444263;28;20934;-73
2022/07/20 22:29:15;;;;;;;2.88;2.35;;;;;;;;;;10446090;28;20663;-74
2022/07/20 22:34:16;;;;;;;4.35;2.08;;;;;;;;;;10432350;28;20215;-73
2022/07/20 22:39:17;;;;;;;3.78;2.63;;;;;;;;;;10446827;28;20182;-73
2022/07/20 22:44:18;;;;;;;7.63;2.22;;;;;;;;;;10446006;28;20271;-73
2022/07/20 22:49:19;;;;;;;4.88;2.30;;;;;;;;;;10456931;28;20699;-73
2022/07/20 22:54:20;;;;;;;3.40;2.50;;;;;;;;;;10442750;28;20202;-73
2022/07/20 22:59:21;;;;;;;4.72;2.08;;;;;;;;;;10432258;28;20567;-73
2022/07/20 23:04:22;;;;;;;5.43;2.30;;;;;;;;;;10442188;28;20210;-72
2022/07/20 23:09:23;;;;;;;4.75;2.13;;;;;;;;;;10442027;28;20194;-73
2022/07/20 23:14:24;;;;;;;3.13;2.20;;;;;;;;;;10449001;28;20309;-73
2022/07/20 23:19:25;;;;;;;3.72;1.70;;;;;;;;;;10449196;28;20194;-73
2022/07/20 23:24:27;;;;;;;2.38;2.15;;;;;;;;;;10447398;28;20225;-73
2022/07/20 23:29:28;;;;;;;3.50;2.40;;;;;;;;;;10444677;28;20717;-73
2022/07/20 23:34:29;;;;;;;2.42;2.20;;;;;;;;;;10443772;28;20288;-73
2022/07/20 23:39:30;;;;;;;3.85;2.00;;;;;;;;;;10448392;28;20201;-73
2022/07/20 23:44:31;;;;;;;6.32;2.10;;;;;;;;;;10447762;28;20200;-73
2022/07/20 23:49:33;;;;;;;3.42;2.00;;;;;;;;;;10448488;28;20210;-73
2022/07/20 23:54:34;;;;;;;10.10;2.63;;;;;;;;;;10442964;28;20255;-73
2022/07/20 23:59:35;;;;;;;6.88;2.28;;;;;;;;;;10445478;28;20178;-73
